sensor_id;sensor_type;location;lat;lon;timestamp;P1;durP1;ratioP1;P2;durP2;ratioP2
18090;SDS011;9172;49.948;9.208;2022-11-15T00:01:28;5.43;;;2.27;;
18090;SDS011;9172;49.948;9.208;2022-11-15T00:03:58;3.83;;;2.30;;
18090;SDS011;9172;49.948;9.208;2022-11-15T00:06:26;5.87;;;2.17;;
18090;SDS011;9172;49.948;9.208;2022-11-15T00:08:57;4.00;;;2.00;;
18090;SDS011;9172;49.948;9.208;2022-11-15T00:11:26;3.97;;;1.90;;
18090;SDS011;9172;49.948;9.208;2022-11-15T00:13:56;4.53;;;2.33;;
18090;SDS011;9172;49.948;9.208;2022-11-15T00:16:28;3.77;;;2.20;;
18090;SDS011;9172;49.948;9.208;2022-11-15T00:18:57;3.90;;;2.03;;
18090;SDS011;9172;49.948;9.208;2022-11-15T00:21:25;4.43;;;2.20;;
18090;SDS011;9172;49.948;9.208;2022-11-15T00:23:57;5.80;;;2.23;;
18090;SDS011;9172;49.948;9.208;2022-11-15T00:26:26;2.73;;;1.93;;
18090;SDS011;9172;49.948;9.208;2022-11-15T00:28:56;2.70;;;1.87;;
18090;SDS011;9172;49.948;9.208;2022-11-15T00:31:25;8.10;;;2.20;;
18090;SDS011;9172;49.948;9.208;2022-11-15T00:33:54;4.30;;;1.90;;
18090;SDS011;9172;49.948;9.208;2022-11-15T00:36:24;3.23;;;2.10;;
18090;SDS011;9172;49.948;9.208;2022-11-15T00:38:52;6.67;;;2.13;;
18090;SDS011;9172;49.948;9.208;2022-11-15T00:41:21;5.13;;;2.00;;
18090;SDS011;9172;49.948;9.208;2022-11-15T00:43:50;6.33;;;1.90;;
18090;SDS011;9172;49.948;9.208;2022-11-15T00:46:18;3.10;;;1.70;;
18090;SDS011;9172;49.948;9.208;2022-11-15T00:48:47;4.57;;;2.03;;
18090;SDS011;9172;49.948;9.208;2022-11-15T00:51:16;4.43;;;2.43;;
18090;SDS011;9172;49.948;9.208;2022-11-15T00:53:45;3.73;;;2.20;;
18090;SDS011;9172;49.948;9.208;2022-11-15T00:56:13;5.93;;;2.40;;
18090;SDS011;9172;49.948;9.208;2022-11-15T00:58:42;5.20;;;1.77;;
18090;SDS011;9172;49.948;9.208;2022-11-15T01:01:11;5.57;;;2.00;;
18090;SDS011;9172;49.948;9.208;2022-11-15T01:03:41;3.77;;;2.20;;
18090;SDS011;9172;49.948;9.208;2022-11-15T01:06:10;5.60;;;2.10;;
18090;SDS011;9172;49.948;9.208;2022-11-15T01:08:39;3.60;;;2.20;;
18090;SDS011;9172;49.948;9.208;2022-11-15T01:11:09;4.40;;;1.93;;
18090;SDS011;9172;49.948;9.208;2022-11-15T01:13:38;3.57;;;1.93;;
18090;SDS011;9172;49.948;9.208;2022-11-15T01:16:08;2.37;;;1.70;;
18090;SDS011;9172;49.948;9.208;2022-11-15T01:18:39;5.70;;;1.60;;
18090;SDS011;9172;49.948;9.208;2022-11-15T01:21:09;4.53;;;1.90;;
18090;SDS011;9172;49.948;9.208;2022-11-15T01:23:39;3.70;;;2.13;;
18090;SDS011;9172;49.948;9.208;2022-11-15T01:26:10;2.77;;;1.70;;
18090;SDS011;9172;49.948;9.208;2022-11-15T01:28:40;3.17;;;1.83;;
18090;SDS011;9172;49.948;9.208;2022-11-15T01:31:11;3.03;;;1.83;;
18090;SDS011;9172;49.948;9.208;2022-11-15T01:33:42;4.27;;;1.83;;
18090;SDS011;9172;49.948;9.208;2022-11-15T01:36:12;4.30;;;1.70;;
18090;SDS011;9172;49.948;9.208;2022-11-15T01:38:42;4.20;;;2.17;;
18090;SDS011;9172;49.948;9.208;2022-11-15T01:41:15;4.93;;;1.70;;
18090;SDS011;9172;49.948;9.208;2022-11-15T01:43:46;4.67;;;2.23;;
18090;SDS011;9172;49.948;9.208;2022-11-15T01:46:21;3.43;;;1.90;;
18090;SDS011;9172;49.948;9.208;2022-11-15T01:48:56;2.80;;;1.80;;
18090;SDS011;9172;49.948;9.208;2022-11-15T01:51:28;5.03;;;2.93;;
18090;SDS011;9172;49.948;9.208;2022-11-15T01:54:00;4.47;;;1.80;;
18090;SDS011;9172;49.948;9.208;2022-11-15T01:56:32;5.10;;;2.13;;
18090;SDS011;9172;49.948;9.208;2022-11-15T01:59:04;4.63;;;2.00;;
18090;SDS011;9172;49.948;9.208;2022-11-15T02:01:35;3.87;;;1.83;;
18090;SDS011;9172;49.948;9.208;2022-11-15T02:04:05;2.47;;;1.60;;
18090;SDS011;9172;49.948;9.208;2022-11-15T02:06:36;2.47;;;1.73;;
18090;SDS011;9172;49.948;9.208;2022-11-15T02:09:05;3.77;;;1.53;;
18090;SDS011;9172;49.948;9.208;2022-11-15T02:11:35;4.97;;;1.97;;
18090;SDS011;9172;49.948;9.208;2022-11-15T02:14:04;5.40;;;2.10;;
18090;SDS011;9172;49.948;9.208;2022-11-15T02:16:35;4.70;;;2.07;;
18090;SDS011;9172;49.948;9.208;2022-11-15T02:19:09;2.57;;;1.50;;
18090;SDS011;9172;49.948;9.208;2022-11-15T02:21:42;2.43;;;1.80;;
18090;SDS011;9172;49.948;9.208;2022-11-15T02:24:19;4.30;;;1.67;;
18090;SDS011;9172;49.948;9.208;2022-11-15T02:27:12;5.00;;;2.03;;
18090;SDS011;9172;49.948;9.208;2022-11-15T02:30:14;2.40;;;1.70;;
18090;SDS011;9172;49.948;9.208;2022-11-15T02:32:47;2.77;;;1.73;;
18090;SDS011;9172;49.948;9.208;2022-11-15T02:35:19;8.73;;;2.10;;
18090;SDS011;9172;49.948;9.208;2022-11-15T02:37:51;5.03;;;2.17;;
18090;SDS011;9172;49.948;9.208;2022-11-15T02:40:26;5.60;;;1.93;;
18090;SDS011;9172;49.948;9.208;2022-11-15T02:43:02;4.27;;;2.07;;
18090;SDS011;9172;49.948;9.208;2022-11-15T02:45:51;4.17;;;1.70;;
18090;SDS011;9172;49.948;9.208;2022-11-15T02:48:22;4.13;;;1.80;;
18090;SDS011;9172;49.948;9.208;2022-11-15T02:50:53;5.50;;;2.10;;
18090;SDS011;9172;49.948;9.208;2022-11-15T02:53:27;2.80;;;1.73;;
18090;SDS011;9172;49.948;9.208;2022-11-15T02:55:59;4.77;;;1.90;;
18090;SDS011;9172;49.948;9.208;2022-11-15T02:58:48;5.47;;;1.70;;
18090;SDS011;9172;49.948;9.208;2022-11-15T03:01:42;2.97;;;1.83;;
18090;SDS011;9172;49.948;9.208;2022-11-15T03:04:18;3.17;;;2.13;;
18090;SDS011;9172;49.948;9.208;2022-11-15T03:06:49;3.83;;;1.80;;
18090;SDS011;9172;49.948;9.208;2022-11-15T03:09:23;3.03;;;1.67;;
18090;SDS011;9172;49.948;9.208;2022-11-15T03:11:58;5.30;;;1.80;;
18090;SDS011;9172;49.948;9.208;2022-11-15T03:14:29;2.73;;;1.63;;
18090;SDS011;9172;49.948;9.208;2022-11-15T03:17:02;4.37;;;2.07;;
18090;SDS011;9172;49.948;9.208;2022-11-15T03:19:34;2.40;;;1.50;;
18090;SDS011;9172;49.948;9.208;2022-11-15T03:22:07;9.23;;;2.00;;
18090;SDS011;9172;49.948;9.208;2022-11-15T03:24:38;6.17;;;1.80;;
18090;SDS011;9172;49.948;9.208;2022-11-15T03:27:09;4.67;;;2.30;;
18090;SDS011;9172;49.948;9.208;2022-11-15T03:29:42;6.40;;;2.50;;
18090;SDS011;9172;49.948;9.208;2022-11-15T03:32:13;5.50;;;2.00;;
18090;SDS011;9172;49.948;9.208;2022-11-15T03:34:46;7.40;;;1.80;;
18090;SDS011;9172;49.948;9.208;2022-11-15T03:37:16;2.17;;;1.43;;
18090;SDS011;9172;49.948;9.208;2022-11-15T03:39:48;2.70;;;1.60;;
18090;SDS011;9172;49.948;9.208;2022-11-15T03:42:19;3.70;;;1.83;;
18090;SDS011;9172;49.948;9.208;2022-11-15T03:44:51;2.60;;;1.50;;
18090;SDS011;9172;49.948;9.208;2022-11-15T03:47:25;3.27;;;1.40;;
18090;SDS011;9172;49.948;9.208;2022-11-15T03:49:57;5.20;;;1.63;;
18090;SDS011;9172;49.948;9.208;2022-11-15T03:52:30;5.83;;;1.80;;
18090;SDS011;9172;49.948;9.208;2022-11-15T03:55:00;2.93;;;1.90;;
18090;SDS011;9172;49.948;9.208;2022-11-15T03:57:31;3.03;;;1.77;;
18090;SDS011;9172;49.948;9.208;2022-11-15T04:00:00;2.53;;;1.67;;
18090;SDS011;9172;49.948;9.208;2022-11-15T04:02:28;2.53;;;1.47;;
18090;SDS011;9172;49.948;9.208;2022-11-15T04:04:59;6.30;;;2.00;;
18090;SDS011;9172;49.948;9.208;2022-11-15T04:07:27;4.13;;;1.73;;
18090;SDS011;9172;49.948;9.208;2022-11-15T04:09:56;3.93;;;1.90;;
18090;SDS011;9172;49.948;9.208;2022-11-15T04:12:32;7.47;;;2.17;;
18090;SDS011;9172;49.948;9.208;2022-11-15T04:15:03;4.03;;;1.87;;
18090;SDS011;9172;49.948;9.208;2022-11-15T04:17:35;2.97;;;1.70;;
18090;SDS011;9172;49.948;9.208;2022-11-15T04:20:08;5.03;;;2.50;;
18090;SDS011;9172;49.948;9.208;2022-11-15T04:22:57;3.00;;;1.47;;
18090;SDS011;9172;49.948;9.208;2022-11-15T04:25:45;3.30;;;1.60;;
18090;SDS011;9172;49.948;9.208;2022-11-15T04:28:18;4.43;;;1.90;;
18090;SDS011;9172;49.948;9.208;2022-11-15T04:30:49;3.87;;;2.13;;
18090;SDS011;9172;49.948;9.208;2022-11-15T04:33:17;2.70;;;1.67;;
18090;SDS011;9172;49.948;9.208;2022-11-15T04:35:47;2.07;;;1.60;;
18090;SDS011;9172;49.948;9.208;2022-11-15T04:38:35;4.63;;;2.00;;
18090;SDS011;9172;49.948;9.208;2022-11-15T04:41:04;7.03;;;2.03;;
18090;SDS011;9172;49.948;9.208;2022-11-15T04:43:33;6.83;;;2.20;;
18090;SDS011;9172;49.948;9.208;2022-11-15T04:46:03;3.20;;;1.73;;
18090;SDS011;9172;49.948;9.208;2022-11-15T04:48:32;2.60;;;1.60;;
18090;SDS011;9172;49.948;9.208;2022-11-15T04:51:01;2.77;;;1.60;;
18090;SDS011;9172;49.948;9.208;2022-11-15T04:53:30;3.30;;;1.90;;
18090;SDS011;9172;49.948;9.208;2022-11-15T04:55:59;11.73;;;2.40;;
18090;SDS011;9172;49.948;9.208;2022-11-15T04:58:28;4.23;;;1.90;;
18090;SDS011;9172;49.948;9.208;2022-11-15T05:00:57;3.63;;;1.60;;
18090;SDS011;9172;49.948;9.208;2022-11-15T05:03:28;8.53;;;1.90;;
18090;SDS011;9172;49.948;9.208;2022-11-15T05:06:15;3.67;;;1.70;;
18090;SDS011;9172;49.948;9.208;2022-11-15T05:08:44;2.47;;;1.57;;
18090;SDS011;9172;49.948;9.208;2022-11-15T05:11:14;3.07;;;2.00;;
18090;SDS011;9172;49.948;9.208;2022-11-15T05:13:44;4.00;;;1.53;;
18090;SDS011;9172;49.948;9.208;2022-11-15T05:16:14;4.30;;;1.87;;
18090;SDS011;9172;49.948;9.208;2022-11-15T05:18:43;4.10;;;1.63;;
18090;SDS011;9172;49.948;9.208;2022-11-15T05:21:14;2.70;;;1.83;;
18090;SDS011;9172;49.948;9.208;2022-11-15T05:23:43;3.23;;;1.60;;
18090;SDS011;9172;49.948;9.208;2022-11-15T05:26:11;2.93;;;1.70;;
18090;SDS011;9172;49.948;9.208;2022-11-15T05:28:43;3.03;;;1.90;;
18090;SDS011;9172;49.948;9.208;2022-11-15T05:31:12;7.33;;;1.93;;
18090;SDS011;9172;49.948;9.208;2022-11-15T05:33:42;4.03;;;1.60;;
18090;SDS011;9172;49.948;9.208;2022-11-15T05:36:13;2.63;;;1.60;;
18090;SDS011;9172;49.948;9.208;2022-11-15T05:38:44;4.30;;;2.10;;
18090;SDS011;9172;49.948;9.208;2022-11-15T05:41:14;2.90;;;1.60;;
18090;SDS011;9172;49.948;9.208;2022-11-15T05:43:44;2.47;;;2.13;;
18090;SDS011;9172;49.948;9.208;2022-11-15T05:46:14;6.10;;;2.50;;
18090;SDS011;9172;49.948;9.208;2022-11-15T05:48:45;7.57;;;2.20;;
18090;SDS011;9172;49.948;9.208;2022-11-15T05:51:16;3.77;;;2.27;;
18090;SDS011;9172;49.948;9.208;2022-11-15T05:53:47;7.87;;;1.90;;
18090;SDS011;9172;49.948;9.208;2022-11-15T05:56:17;3.43;;;1.83;;
18090;SDS011;9172;49.948;9.208;2022-11-15T05:58:46;6.73;;;2.43;;
18090;SDS011;9172;49.948;9.208;2022-11-15T06:01:15;4.70;;;2.40;;
18090;SDS011;9172;49.948;9.208;2022-11-15T06:03:44;6.33;;;2.43;;
18090;SDS011;9172;49.948;9.208;2022-11-15T06:06:14;9.00;;;2.77;;
18090;SDS011;9172;49.948;9.208;2022-11-15T06:08:43;5.90;;;2.97;;
18090;SDS011;9172;49.948;9.208;2022-11-15T06:11:11;5.83;;;2.50;;
18090;SDS011;9172;49.948;9.208;2022-11-15T06:13:40;5.27;;;2.47;;
18090;SDS011;9172;49.948;9.208;2022-11-15T06:16:10;4.17;;;2.17;;
18090;SDS011;9172;49.948;9.208;2022-11-15T06:18:39;4.90;;;2.50;;
18090;SDS011;9172;49.948;9.208;2022-11-15T06:21:08;3.97;;;2.20;;
18090;SDS011;9172;49.948;9.208;2022-11-15T06:23:37;3.47;;;2.43;;
18090;SDS011;9172;49.948;9.208;2022-11-15T06:26:05;2.57;;;2.03;;
18090;SDS011;9172;49.948;9.208;2022-11-15T06:28:35;5.83;;;2.53;;
18090;SDS011;9172;49.948;9.208;2022-11-15T06:31:05;8.97;;;2.73;;
18090;SDS011;9172;49.948;9.208;2022-11-15T06:33:37;5.70;;;2.40;;
18090;SDS011;9172;49.948;9.208;2022-11-15T06:36:07;10.10;;;3.17;;
18090;SDS011;9172;49.948;9.208;2022-11-15T06:38:39;6.27;;;2.90;;
18090;SDS011;9172;49.948;9.208;2022-11-15T06:41:08;6.13;;;2.57;;
18090;SDS011;9172;49.948;9.208;2022-11-15T06:43:40;5.37;;;2.30;;
18090;SDS011;9172;49.948;9.208;2022-11-15T06:46:08;4.13;;;2.60;;
18090;SDS011;9172;49.948;9.208;2022-11-15T06:48:38;6.10;;;2.50;;
18090;SDS011;9172;49.948;9.208;2022-11-15T06:51:08;6.97;;;2.77;;
18090;SDS011;9172;49.948;9.208;2022-11-15T06:53:37;4.43;;;2.40;;
18090;SDS011;9172;49.948;9.208;2022-11-15T06:56:06;4.73;;;2.23;;
18090;SDS011;9172;49.948;9.208;2022-11-15T06:58:36;4.33;;;2.20;;
18090;SDS011;9172;49.948;9.208;2022-11-15T07:01:05;4.63;;;2.20;;
18090;SDS011;9172;49.948;9.208;2022-11-15T07:03:36;2.90;;;2.10;;
18090;SDS011;9172;49.948;9.208;2022-11-15T07:06:06;5.03;;;2.23;;
18090;SDS011;9172;49.948;9.208;2022-11-15T07:08:36;3.97;;;1.80;;
18090;SDS011;9172;49.948;9.208;2022-11-15T07:11:06;1.77;;;1.50;;
18090;SDS011;9172;49.948;9.208;2022-11-15T07:13:35;2.83;;;1.63;;
18090;SDS011;9172;49.948;9.208;2022-11-15T07:16:05;5.77;;;2.20;;
18090;SDS011;9172;49.948;9.208;2022-11-15T07:18:35;3.40;;;2.00;;
18090;SDS011;9172;49.948;9.208;2022-11-15T07:21:06;5.00;;;2.10;;
18090;SDS011;9172;49.948;9.208;2022-11-15T07:23:36;4.70;;;2.73;;
18090;SDS011;9172;49.948;9.208;2022-11-15T07:26:05;7.17;;;2.87;;
18090;SDS011;9172;49.948;9.208;2022-11-15T07:28:35;7.07;;;3.27;;
18090;SDS011;9172;49.948;9.208;2022-11-15T07:31:05;4.57;;;2.40;;
18090;SDS011;9172;49.948;9.208;2022-11-15T07:33:35;3.83;;;2.20;;
18090;SDS011;9172;49.948;9.208;2022-11-15T07:36:05;7.40;;;2.63;;
18090;SDS011;9172;49.948;9.208;2022-11-15T07:38:36;5.17;;;2.20;;
18090;SDS011;9172;49.948;9.208;2022-11-15T07:41:05;7.13;;;2.17;;
18090;SDS011;9172;49.948;9.208;2022-11-15T07:43:35;3.60;;;2.10;;
18090;SDS011;9172;49.948;9.208;2022-11-15T07:46:04;4.97;;;2.67;;
18090;SDS011;9172;49.948;9.208;2022-11-15T07:48:35;2.30;;;1.87;;
18090;SDS011;9172;49.948;9.208;2022-11-15T07:51:06;7.30;;;2.27;;
18090;SDS011;9172;49.948;9.208;2022-11-15T07:53:36;4.93;;;2.03;;
18090;SDS011;9172;49.948;9.208;2022-11-15T07:56:06;3.67;;;1.90;;
18090;SDS011;9172;49.948;9.208;2022-11-15T07:58:36;3.20;;;1.90;;
18090;SDS011;9172;49.948;9.208;2022-11-15T08:01:05;2.97;;;1.73;;
18090;SDS011;9172;49.948;9.208;2022-11-15T08:03:34;4.13;;;2.10;;
18090;SDS011;9172;49.948;9.208;2022-11-15T08:06:03;3.23;;;1.60;;
18090;SDS011;9172;49.948;9.208;2022-11-15T08:08:33;7.70;;;2.23;;
18090;SDS011;9172;49.948;9.208;2022-11-15T08:11:04;2.67;;;1.80;;
18090;SDS011;9172;49.948;9.208;2022-11-15T08:13:32;2.57;;;1.77;;
18090;SDS011;9172;49.948;9.208;2022-11-15T08:16:04;2.70;;;1.50;;
18090;SDS011;9172;49.948;9.208;2022-11-15T08:18:34;3.67;;;1.70;;
18090;SDS011;9172;49.948;9.208;2022-11-15T08:21:04;5.50;;;1.90;;
18090;SDS011;9172;49.948;9.208;2022-11-15T08:23:32;2.33;;;1.50;;
18090;SDS011;9172;49.948;9.208;2022-11-15T08:26:01;4.27;;;1.87;;
18090;SDS011;9172;49.948;9.208;2022-11-15T08:28:31;5.43;;;2.03;;
18090;SDS011;9172;49.948;9.208;2022-11-15T08:31:02;3.20;;;2.07;;
18090;SDS011;9172;49.948;9.208;2022-11-15T08:33:31;3.40;;;1.60;;
18090;SDS011;9172;49.948;9.208;2022-11-15T08:36:02;2.37;;;1.87;;
18090;SDS011;9172;49.948;9.208;2022-11-15T08:38:32;10.43;;;2.07;;
18090;SDS011;9172;49.948;9.208;2022-11-15T08:41:01;4.27;;;1.50;;
18090;SDS011;9172;49.948;9.208;2022-11-15T08:43:35;3.83;;;1.50;;
18090;SDS011;9172;49.948;9.208;2022-11-15T08:46:10;2.37;;;1.20;;
18090;SDS011;9172;49.948;9.208;2022-11-15T08:48:41;2.37;;;1.20;;
18090;SDS011;9172;49.948;9.208;2022-11-15T08:51:10;4.77;;;1.40;;
18090;SDS011;9172;49.948;9.208;2022-11-15T08:53:39;3.63;;;1.83;;
18090;SDS011;9172;49.948;9.208;2022-11-15T08:56:07;2.83;;;1.70;;
18090;SDS011;9172;49.948;9.208;2022-11-15T08:58:37;2.57;;;1.57;;
18090;SDS011;9172;49.948;9.208;2022-11-15T09:01:13;2.80;;;1.80;;
18090;SDS011;9172;49.948;9.208;2022-11-15T09:03:42;3.77;;;1.77;;
18090;SDS011;9172;49.948;9.208;2022-11-15T09:06:10;3.23;;;1.60;;
18090;SDS011;9172;49.948;9.208;2022-11-15T09:08:39;2.50;;;1.07;;
18090;SDS011;9172;49.948;9.208;2022-11-15T09:11:09;2.43;;;1.50;;
18090;SDS011;9172;49.948;9.208;2022-11-15T09:13:38;1.60;;;1.43;;
18090;SDS011;9172;49.948;9.208;2022-11-15T09:16:07;5.90;;;1.40;;
18090;SDS011;9172;49.948;9.208;2022-11-15T09:18:37;2.43;;;1.40;;
18090;SDS011;9172;49.948;9.208;2022-11-15T09:21:07;2.03;;;1.30;;
18090;SDS011;9172;49.948;9.208;2022-11-15T09:23:36;3.10;;;1.40;;
18090;SDS011;9172;49.948;9.208;2022-11-15T09:26:05;6.03;;;1.53;;
18090;SDS011;9172;49.948;9.208;2022-11-15T09:28:35;3.20;;;1.20;;
18090;SDS011;9172;49.948;9.208;2022-11-15T09:31:04;1.70;;;1.17;;
18090;SDS011;9172;49.948;9.208;2022-11-15T09:33:34;2.10;;;1.33;;
18090;SDS011;9172;49.948;9.208;2022-11-15T09:36:05;6.20;;;1.40;;
18090;SDS011;9172;49.948;9.208;2022-11-15T09:38:35;4.67;;;1.33;;
18090;SDS011;9172;49.948;9.208;2022-11-15T09:41:12;2.27;;;1.17;;
18090;SDS011;9172;49.948;9.208;2022-11-15T09:43:50;1.90;;;1.43;;
18090;SDS011;9172;49.948;9.208;2022-11-15T09:46:32;2.47;;;1.60;;
18090;SDS011;9172;49.948;9.208;2022-11-15T09:49:06;3.13;;;1.40;;
18090;SDS011;9172;49.948;9.208;2022-11-15T09:51:37;4.20;;;1.30;;
18090;SDS011;9172;49.948;9.208;2022-11-15T09:54:10;1.57;;;1.23;;
18090;SDS011;9172;49.948;9.208;2022-11-15T09:56:41;4.13;;;1.50;;
18090;SDS011;9172;49.948;9.208;2022-11-15T09:59:17;3.37;;;1.30;;
18090;SDS011;9172;49.948;9.208;2022-11-15T10:01:56;4.77;;;1.33;;
18090;SDS011;9172;49.948;9.208;2022-11-15T10:04:26;3.20;;;1.47;;
18090;SDS011;9172;49.948;9.208;2022-11-15T10:06:58;3.43;;;1.50;;
18090;SDS011;9172;49.948;9.208;2022-11-15T10:09:28;3.27;;;1.47;;
18090;SDS011;9172;49.948;9.208;2022-11-15T10:11:59;3.50;;;1.50;;
18090;SDS011;9172;49.948;9.208;2022-11-15T10:14:28;3.80;;;1.27;;
18090;SDS011;9172;49.948;9.208;2022-11-15T10:20:02;2.77;;;1.63;;
18090;SDS011;9172;49.948;9.208;2022-11-15T10:22:37;3.10;;;1.27;;
18090;SDS011;9172;49.948;9.208;2022-11-15T10:25:16;4.37;;;1.37;;
18090;SDS011;9172;49.948;9.208;2022-11-15T10:27:51;3.70;;;1.30;;
18090;SDS011;9172;49.948;9.208;2022-11-15T10:30:22;2.57;;;1.33;;
18090;SDS011;9172;49.948;9.208;2022-11-15T10:32:53;4.40;;;1.50;;
18090;SDS011;9172;49.948;9.208;2022-11-15T10:35:25;3.23;;;1.30;;
18090;SDS011;9172;49.948;9.208;2022-11-15T10:38:02;4.73;;;1.73;;
18090;SDS011;9172;49.948;9.208;2022-11-15T10:40:34;3.27;;;1.50;;
18090;SDS011;9172;49.948;9.208;2022-11-15T10:43:05;5.93;;;1.60;;
18090;SDS011;9172;49.948;9.208;2022-11-15T10:45:40;4.90;;;1.80;;
18090;SDS011;9172;49.948;9.208;2022-11-15T10:48:24;3.00;;;1.37;;
18090;SDS011;9172;49.948;9.208;2022-11-15T10:50:53;3.23;;;1.50;;
18090;SDS011;9172;49.948;9.208;2022-11-15T10:53:24;2.90;;;1.70;;
18090;SDS011;9172;49.948;9.208;2022-11-15T10:55:58;2.53;;;1.57;;
18090;SDS011;9172;49.948;9.208;2022-11-15T10:58:32;3.40;;;1.50;;
18090;SDS011;9172;49.948;9.208;2022-11-15T11:01:14;3.17;;;1.30;;
18090;SDS011;9172;49.948;9.208;2022-11-15T11:03:45;2.60;;;1.40;;
18090;SDS011;9172;49.948;9.208;2022-11-15T11:06:26;4.07;;;1.87;;
18090;SDS011;9172;49.948;9.208;2022-11-15T11:08:56;2.27;;;1.37;;
18090;SDS011;9172;49.948;9.208;2022-11-15T11:11:43;3.83;;;1.60;;
18090;SDS011;9172;49.948;9.208;2022-11-15T11:14:12;3.83;;;1.57;;
18090;SDS011;9172;49.948;9.208;2022-11-15T11:16:46;3.27;;;1.33;;
18090;SDS011;9172;49.948;9.208;2022-11-15T11:19:19;2.03;;;1.10;;
18090;SDS011;9172;49.948;9.208;2022-11-15T11:21:55;1.87;;;1.20;;
18090;SDS011;9172;49.948;9.208;2022-11-15T11:24:30;3.17;;;1.37;;
18090;SDS011;9172;49.948;9.208;2022-11-15T11:27:05;2.47;;;1.10;;
18090;SDS011;9172;49.948;9.208;2022-11-15T11:29:44;5.23;;;1.20;;
18090;SDS011;9172;49.948;9.208;2022-11-15T11:32:23;3.73;;;1.60;;
18090;SDS011;9172;49.948;9.208;2022-11-15T11:35:01;1.77;;;1.23;;
18090;SDS011;9172;49.948;9.208;2022-11-15T11:37:34;2.50;;;1.30;;
18090;SDS011;9172;49.948;9.208;2022-11-15T11:40:10;3.43;;;1.43;;
18090;SDS011;9172;49.948;9.208;2022-11-15T11:42:43;2.40;;;1.33;;
18090;SDS011;9172;49.948;9.208;2022-11-15T11:45:15;1.87;;;1.23;;
18090;SDS011;9172;49.948;9.208;2022-11-15T11:47:47;6.33;;;1.30;;
18090;SDS011;9172;49.948;9.208;2022-11-15T11:50:19;1.73;;;1.00;;
18090;SDS011;9172;49.948;9.208;2022-11-15T11:52:54;1.63;;;1.10;;
18090;SDS011;9172;49.948;9.208;2022-11-15T11:55:26;3.90;;;1.53;;
18090;SDS011;9172;49.948;9.208;2022-11-15T11:57:59;1.20;;;0.90;;
18090;SDS011;9172;49.948;9.208;2022-11-15T12:00:33;6.27;;;1.20;;
18090;SDS011;9172;49.948;9.208;2022-11-15T12:03:04;2.80;;;1.00;;
18090;SDS011;9172;49.948;9.208;2022-11-15T12:05:38;2.13;;;1.20;;
18090;SDS011;9172;49.948;9.208;2022-11-15T12:08:15;2.70;;;1.00;;
18090;SDS011;9172;49.948;9.208;2022-11-15T12:10:51;1.67;;;1.10;;
18090;SDS011;9172;49.948;9.208;2022-11-15T12:13:23;1.47;;;1.10;;
18090;SDS011;9172;49.948;9.208;2022-11-15T12:15:53;3.60;;;1.10;;
18090;SDS011;9172;49.948;9.208;2022-11-15T12:18:26;3.63;;;1.30;;
18090;SDS011;9172;49.948;9.208;2022-11-15T12:20:56;2.27;;;1.23;;
18090;SDS011;9172;49.948;9.208;2022-11-15T12:23:27;2.23;;;1.07;;
18090;SDS011;9172;49.948;9.208;2022-11-15T12:25:59;3.87;;;1.20;;
18090;SDS011;9172;49.948;9.208;2022-11-15T12:28:32;4.30;;;1.40;;
18090;SDS011;9172;49.948;9.208;2022-11-15T12:31:03;1.37;;;1.00;;
18090;SDS011;9172;49.948;9.208;2022-11-15T12:33:35;1.50;;;1.10;;
18090;SDS011;9172;49.948;9.208;2022-11-15T12:36:08;1.23;;;0.97;;
18090;SDS011;9172;49.948;9.208;2022-11-15T12:38:55;2.10;;;1.10;;
18090;SDS011;9172;49.948;9.208;2022-11-15T12:41:26;1.93;;;0.90;;
18090;SDS011;9172;49.948;9.208;2022-11-15T12:43:56;3.10;;;1.20;;
18090;SDS011;9172;49.948;9.208;2022-11-15T12:49:42;1.40;;;1.10;;
18090;SDS011;9172;49.948;9.208;2022-11-15T12:54:52;5.40;;;1.50;;
18090;SDS011;9172;49.948;9.208;2022-11-15T12:57:29;2.30;;;1.03;;
18090;SDS011;9172;49.948;9.208;2022-11-15T13:03:28;2.73;;;1.20;;
18090;SDS011;9172;49.948;9.208;2022-11-15T13:06:07;3.63;;;1.20;;
18090;SDS011;9172;49.948;9.208;2022-11-15T13:08:46;2.43;;;1.33;;
18090;SDS011;9172;49.948;9.208;2022-11-15T13:17:32;1.63;;;1.20;;
18090;SDS011;9172;49.948;9.208;2022-11-15T13:20:17;2.87;;;1.30;;
18090;SDS011;9172;49.948;9.208;2022-11-15T13:22:49;1.80;;;1.10;;
18090;SDS011;9172;49.948;9.208;2022-11-15T13:25:25;3.00;;;1.30;;
18090;SDS011;9172;49.948;9.208;2022-11-15T13:27:57;3.97;;;1.17;;
18090;SDS011;9172;49.948;9.208;2022-11-15T13:30:27;1.73;;;1.10;;
18090;SDS011;9172;49.948;9.208;2022-11-15T13:33:00;2.10;;;1.60;;
18090;SDS011;9172;49.948;9.208;2022-11-15T13:35:31;5.20;;;1.43;;
18090;SDS011;9172;49.948;9.208;2022-11-15T13:38:03;1.77;;;1.10;;
18090;SDS011;9172;49.948;9.208;2022-11-15T13:40:39;3.67;;;1.43;;
18090;SDS011;9172;49.948;9.208;2022-11-15T13:43:15;5.20;;;1.50;;
18090;SDS011;9172;49.948;9.208;2022-11-15T13:45:51;1.40;;;1.00;;
18090;SDS011;9172;49.948;9.208;2022-11-15T13:48:31;2.27;;;1.23;;
18090;SDS011;9172;49.948;9.208;2022-11-15T13:51:00;1.67;;;1.10;;
18090;SDS011;9172;49.948;9.208;2022-11-15T13:53:30;2.33;;;1.33;;
18090;SDS011;9172;49.948;9.208;2022-11-15T13:56:00;2.50;;;1.20;;
18090;SDS011;9172;49.948;9.208;2022-11-15T13:58:30;5.13;;;1.50;;
18090;SDS011;9172;49.948;9.208;2022-11-15T14:01:00;1.80;;;1.37;;
18090;SDS011;9172;49.948;9.208;2022-11-15T14:03:31;1.37;;;1.13;;
18090;SDS011;9172;49.948;9.208;2022-11-15T14:06:03;2.37;;;1.30;;
18090;SDS011;9172;49.948;9.208;2022-11-15T14:08:35;2.40;;;1.10;;
18090;SDS011;9172;49.948;9.208;2022-11-15T14:11:23;1.33;;;1.03;;
18090;SDS011;9172;49.948;9.208;2022-11-15T14:14:10;2.30;;;1.20;;
18090;SDS011;9172;49.948;9.208;2022-11-15T14:16:42;3.60;;;1.50;;
18090;SDS011;9172;49.948;9.208;2022-11-15T14:19:12;4.83;;;1.70;;
18090;SDS011;9172;49.948;9.208;2022-11-15T14:22:07;3.30;;;1.37;;
18090;SDS011;9172;49.948;9.208;2022-11-15T14:24:47;1.70;;;1.20;;
18090;SDS011;9172;49.948;9.208;2022-11-15T14:27:32;2.70;;;1.50;;
18090;SDS011;9172;49.948;9.208;2022-11-15T14:30:01;1.93;;;1.40;;
18090;SDS011;9172;49.948;9.208;2022-11-15T14:32:39;1.57;;;1.20;;
18090;SDS011;9172;49.948;9.208;2022-11-15T14:35:11;1.73;;;1.10;;
18090;SDS011;9172;49.948;9.208;2022-11-15T14:37:41;3.27;;;1.13;;
18090;SDS011;9172;49.948;9.208;2022-11-15T14:40:12;2.90;;;1.27;;
18090;SDS011;9172;49.948;9.208;2022-11-15T14:42:42;3.17;;;1.33;;
18090;SDS011;9172;49.948;9.208;2022-11-15T14:45:13;3.80;;;1.40;;
18090;SDS011;9172;49.948;9.208;2022-11-15T14:47:43;3.03;;;1.50;;
18090;SDS011;9172;49.948;9.208;2022-11-15T14:50:13;2.07;;;1.30;;
18090;SDS011;9172;49.948;9.208;2022-11-15T14:52:43;3.33;;;1.60;;
18090;SDS011;9172;49.948;9.208;2022-11-15T14:55:15;3.63;;;1.40;;
18090;SDS011;9172;49.948;9.208;2022-11-15T14:57:46;4.03;;;1.67;;
18090;SDS011;9172;49.948;9.208;2022-11-15T15:00:16;2.10;;;1.40;;
18090;SDS011;9172;49.948;9.208;2022-11-15T15:02:45;1.23;;;1.10;;
18090;SDS011;9172;49.948;9.208;2022-11-15T15:05:16;2.37;;;1.50;;
18090;SDS011;9172;49.948;9.208;2022-11-15T15:07:46;3.83;;;1.37;;
18090;SDS011;9172;49.948;9.208;2022-11-15T15:10:15;4.23;;;1.33;;
18090;SDS011;9172;49.948;9.208;2022-11-15T15:12:46;3.70;;;1.50;;
18090;SDS011;9172;49.948;9.208;2022-11-15T15:15:15;3.10;;;1.53;;
18090;SDS011;9172;49.948;9.208;2022-11-15T15:17:46;2.90;;;1.40;;
18090;SDS011;9172;49.948;9.208;2022-11-15T15:20:15;2.90;;;1.50;;
18090;SDS011;9172;49.948;9.208;2022-11-15T15:22:44;3.03;;;1.30;;
18090;SDS011;9172;49.948;9.208;2022-11-15T15:25:20;4.17;;;1.40;;
18090;SDS011;9172;49.948;9.208;2022-11-15T15:27:49;2.23;;;1.40;;
18090;SDS011;9172;49.948;9.208;2022-11-15T15:30:18;5.07;;;1.43;;
18090;SDS011;9172;49.948;9.208;2022-11-15T15:32:48;3.03;;;1.60;;
18090;SDS011;9172;49.948;9.208;2022-11-15T15:35:17;1.60;;;1.30;;
18090;SDS011;9172;49.948;9.208;2022-11-15T15:37:47;2.47;;;1.27;;
18090;SDS011;9172;49.948;9.208;2022-11-15T15:40:17;3.20;;;1.23;;
18090;SDS011;9172;49.948;9.208;2022-11-15T15:42:47;2.87;;;1.47;;
18090;SDS011;9172;49.948;9.208;2022-11-15T15:45:16;2.67;;;1.37;;
18090;SDS011;9172;49.948;9.208;2022-11-15T15:47:47;2.63;;;1.20;;